createdAt,value
2023-02-22T00:02:34.219Z,102220.44
2023-02-22T00:05:20.986Z,102222.16
2023-02-22T00:08:09.196Z,102221.25
2023-02-22T00:10:56.915Z,102211.56
2023-02-22T00:13:44.899Z,102214.41
2023-02-22T00:16:31.691Z,102209.13
2023-02-22T00:19:17.697Z,102197.78
2023-02-22T00:22:03.540Z,102206.66
2023-02-22T00:24:50.102Z,102205.72
2023-02-22T00:27:37.797Z,102205.81
2023-02-22T00:30:26.555Z,102200.63
2023-02-22T00:33:13.086Z,102206.66
2023-02-22T00:35:59.203Z,102204.88
2023-02-22T00:38:46.778Z,102203.28
2023-02-22T00:41:34.223Z,102198.84
2023-02-22T00:44:23.618Z,102187.41
2023-02-22T00:47:09.726Z,102201.56
2023-02-22T00:49:55.683Z,102192.03
2023-02-22T00:52:41.695Z,102195.63
2023-02-22T00:55:28.278Z,102187.81
2023-02-22T00:58:14.659Z,102189.69
2023-02-22T01:01:01.978Z,102185.31
2023-02-22T01:03:48.956Z,102182.97
2023-02-22T01:06:36.020Z,102176.94
2023-02-22T01:09:22.006Z,102179.66
2023-02-22T01:12:08.536Z,102183.25
2023-02-22T01:14:56.973Z,102180.81
2023-02-22T01:17:44.215Z,102182.72
2023-02-22T01:20:30.305Z,102178.38
2023-02-22T01:23:17.259Z,102172.31
2023-02-22T01:26:05.555Z,102167.09
2023-02-22T01:28:51.610Z,102165.50
2023-02-22T01:31:37.708Z,102165.50
2023-02-22T01:34:25.934Z,102160.31
2023-02-22T01:37:11.935Z,102161.34
2023-02-22T01:39:58.188Z,102161.34
2023-02-22T01:42:44.720Z,102152.66
2023-02-22T01:45:39.951Z,102161.53
2023-02-22T01:48:30.940Z,102148.44
2023-02-22T01:51:19.061Z,102147.78
2023-02-22T01:54:06.981Z,102151.38
2023-02-22T01:56:55.296Z,102145.22
2023-02-22T01:59:41.510Z,102149.66
2023-02-22T02:02:27.702Z,102144.38
2023-02-22T02:05:13.720Z,102142.75
2023-02-22T02:08:03.370Z,102139.25
2023-02-22T02:10:49.873Z,102139.44
2023-02-22T02:13:36.161Z,102130.09
2023-02-22T02:16:22.769Z,102120.78
2023-02-22T02:19:10.314Z,102124.63
2023-02-22T02:22:14.362Z,102125.84
2023-02-22T02:25:11.115Z,102108.84
2023-02-22T02:28:10.261Z,102096.00
2023-02-22T02:31:04.476Z,102088.47
2023-02-22T02:33:52.630Z,102081.94
2023-02-22T02:36:40.690Z,102084.19
2023-02-22T02:39:27.168Z,102080.31
2023-02-22T02:42:13.730Z,102070.13
2023-02-22T02:45:03.537Z,102057.44
2023-02-22T02:47:51.326Z,102049.31
2023-02-22T02:50:41.509Z,102040.06
2023-02-22T02:53:29.758Z,102022.22
2023-02-22T02:56:15.929Z,102013.91
2023-02-22T02:59:01.568Z,102009.81
2023-02-22T03:01:49.948Z,101999.81
2023-02-22T03:04:43.382Z,101988.75
2023-02-22T03:07:34.378Z,101978.66
2023-02-22T03:10:22.319Z,101971.25
2023-02-22T03:13:10.096Z,101964.47
2023-02-22T03:15:56.997Z,101957.00
2023-02-22T03:18:45.304Z,101946.97
2023-02-22T03:21:33.534Z,101950.06
2023-02-22T03:24:22.240Z,101940.69
2023-02-22T03:27:10.079Z,101939.44
2023-02-22T03:30:00.266Z,101930.16
2023-02-22T03:32:49.278Z,101929.66
2023-02-22T03:35:36.749Z,101923.91
2023-02-22T03:38:22.714Z,101921.50
2023-02-22T03:41:10.469Z,101912.25
2023-02-22T03:43:57.095Z,101916.06
2023-02-22T03:46:43.104Z,101919.88
2023-02-22T03:49:32.532Z,101915.03
2023-02-22T03:52:18.439Z,101912.66
2023-02-22T03:55:04.546Z,101912.13
2023-02-22T03:57:52.128Z,101915.34
2023-02-22T04:00:38.104Z,101909.41
2023-02-22T04:03:24.414Z,101909.56
2023-02-22T04:06:11.906Z,101908.09
2023-02-22T04:08:58.729Z,101910.06
2023-02-22T04:11:44.589Z,101910.22
2023-02-22T04:14:32.665Z,101913.22
2023-02-22T04:17:19.086Z,101913.47
2023-02-22T04:20:07.130Z,101912.88
2023-02-22T04:23:02.148Z,101915.81
2023-02-22T04:25:50.787Z,101919.53
2023-02-22T04:28:37.361Z,101924.19
2023-02-22T04:31:30.014Z,101923.56
2023-02-22T04:34:18.215Z,101931.59
2023-02-22T04:37:04.505Z,101934.38
2023-02-22T04:39:50.370Z,101938.41
2023-02-22T04:42:37.091Z,101932.41
2023-02-22T04:45:23.175Z,101930.97
2023-02-22T04:48:10.298Z,101927.75
2023-02-22T04:50:56.690Z,101924.50
2023-02-22T04:53:43.553Z,101925.63
2023-02-22T04:56:30.609Z,101922.16
2023-02-22T04:59:16.766Z,101927.28
2023-02-22T05:02:05.901Z,101917.81
2023-02-22T05:04:53.379Z,101918.75
2023-02-22T05:07:39.075Z,101919.84
2023-02-22T05:10:25.671Z,101903.22
2023-02-22T05:13:11.862Z,101918.13
2023-02-22T05:15:57.666Z,101913.88
2023-02-22T05:18:44.021Z,101920.16
2023-02-22T05:21:31.072Z,101921.06
2023-02-22T05:24:16.974Z,101923.81
2023-02-22T05:27:02.863Z,101919.41
2023-02-22T05:29:48.571Z,101916.94
2023-02-22T05:32:35.126Z,101911.00
2023-02-22T05:35:21.409Z,101910.22
2023-02-22T05:38:08.809Z,101910.22
2023-02-22T05:40:54.645Z,101908.69
2023-02-22T05:43:40.773Z,101900.88
2023-02-22T05:46:26.802Z,101897.47
2023-02-22T05:49:12.678Z,101892.50
2023-02-22T05:51:59.756Z,101888.41
2023-02-22T05:54:47.109Z,101891.81
2023-02-22T05:57:33.018Z,101884.16
2023-02-22T06:00:23.085Z,101879.91
2023-02-22T06:03:10.487Z,101878.34
2023-02-22T06:05:58.860Z,101877.56
2023-02-22T06:08:44.650Z,101877.47
2023-02-22T06:11:31.871Z,101875.09
2023-02-22T06:14:17.834Z,101874.38
2023-02-22T06:17:05.318Z,101871.00
2023-02-22T06:19:51.459Z,101873.75
2023-02-22T06:22:37.583Z,101867.84
2023-02-22T06:25:24.917Z,101864.47
2023-02-22T06:28:12.068Z,101861.06
2023-02-22T06:30:57.847Z,101861.28
2023-02-22T06:33:43.681Z,101862.13
2023-02-22T06:36:29.621Z,101860.50
2023-02-22T06:39:16.091Z,101865.06
2023-02-22T06:42:02.706Z,101863.28
2023-02-22T06:44:51.743Z,101870.34
2023-02-22T06:47:41.507Z,101870.31
2023-02-22T06:50:29.266Z,101864.25
2023-02-22T06:53:15.235Z,101872.06
2023-02-22T06:56:01.047Z,101875.56
2023-02-22T06:58:46.802Z,101884.19
2023-02-22T07:01:33.933Z,101889.38
2023-02-22T07:04:19.672Z,101889.28
2023-02-22T07:07:06.393Z,101885.75
2023-02-22T07:09:52.637Z,101884.75
2023-02-22T07:12:38.419Z,101879.97
2023-02-22T07:15:24.898Z,101891.22
2023-02-22T07:18:12.465Z,101896.16
2023-02-22T07:20:58.511Z,101896.78
2023-02-22T07:23:49.198Z,101894.66
2023-02-22T07:26:38.918Z,101891.91
2023-02-22T07:29:25.023Z,101889.75
2023-02-22T07:32:10.968Z,101879.66
2023-02-22T07:34:58.689Z,101875.59
2023-02-22T07:37:44.813Z,101878.41
2023-02-22T07:40:30.792Z,101874.50
2023-02-22T07:43:18.251Z,101872.97
2023-02-22T07:46:05.433Z,101873.09
2023-02-22T07:48:51.581Z,101865.16
2023-02-22T07:51:38.730Z,101857.31
2023-02-22T07:54:24.675Z,101854.00
2023-02-22T07:57:10.533Z,101856.94
2023-02-22T07:59:56.541Z,101864.88
2023-02-22T08:02:42.585Z,101863.16
2023-02-22T08:05:29.870Z,101894.16
2023-02-22T08:08:19.770Z,101891.19
2023-02-22T08:11:06.352Z,101907.38
2023-02-22T08:13:52.130Z,101920.94
2023-02-22T08:16:38.094Z,101926.13
2023-02-22T08:19:24.170Z,101943.00
2023-02-22T08:22:10.020Z,101945.69
2023-02-22T08:24:57.277Z,101961.59
2023-02-22T08:27:43.765Z,101977.97
2023-02-22T08:30:30.229Z,101994.09
2023-02-22T08:33:19.077Z,102002.91
2023-02-22T08:36:05.935Z,102008.56
2023-02-22T08:38:51.976Z,102022.03
2023-02-22T08:41:39.102Z,102038.06
2023-02-22T08:44:24.882Z,102050.38
2023-02-22T08:47:11.230Z,102069.88
2023-02-22T08:49:57.202Z,102076.47
2023-02-22T08:52:43.404Z,102082.84
2023-02-22T08:55:30.405Z,102092.84
2023-02-22T08:58:17.798Z,102093.19
2023-02-22T09:01:03.751Z,102095.22
2023-02-22T09:03:49.729Z,102095.66
2023-02-22T09:06:35.660Z,102087.41
2023-02-22T09:09:21.681Z,102082.31
2023-02-22T09:12:07.808Z,102069.28
2023-02-22T09:14:55.278Z,102061.50
2023-02-22T09:17:41.121Z,102043.91
2023-02-22T09:20:26.862Z,102029.03
2023-02-22T09:23:14.348Z,102003.03
2023-02-22T09:26:00.519Z,101984.41
2023-02-22T09:28:46.991Z,101958.31
2023-02-22T09:31:36.749Z,101915.88
2023-02-22T09:34:29.297Z,101893.41
2023-02-22T09:37:15.453Z,101868.81
2023-02-22T09:40:01.247Z,101835.66
2023-02-22T09:42:48.687Z,101795.81
2023-02-22T09:45:36.726Z,101757.34
2023-02-22T09:48:25.216Z,101731.03
2023-02-22T09:51:12.306Z,101684.81
2023-02-22T09:53:59.176Z,101658.72
2023-02-22T09:56:46.766Z,101631.78
2023-02-22T09:59:33.169Z,101601.91
2023-02-22T10:02:22.747Z,101577.09
2023-02-22T10:05:11.573Z,101539.09
2023-02-22T10:07:59.298Z,101505.75
2023-02-22T10:10:46.250Z,101477.41
2023-02-22T10:13:34.613Z,101442.22
2023-02-22T10:16:22.182Z,101407.63
2023-02-22T10:19:11.254Z,101366.63
2023-02-22T10:22:01.323Z,101331.06
2023-02-22T10:24:50.631Z,101279.00
2023-02-22T10:27:38.367Z,101228.06
2023-02-22T10:30:25.897Z,101183.53
2023-02-22T10:33:14.401Z,101146.69
2023-02-22T10:36:00.467Z,101114.25
2023-02-22T10:38:49.601Z,101095.16
2023-02-22T10:41:35.641Z,101071.13
2023-02-22T10:44:21.465Z,101050.69
2023-02-22T10:47:08.285Z,101034.91
2023-02-22T10:49:55.790Z,101021.63
2023-02-22T10:52:41.821Z,100996.38
2023-02-22T10:55:28.898Z,100975.50
2023-02-22T10:58:14.810Z,100966.78
2023-02-22T11:01:00.531Z,100951.06
2023-02-22T11:03:46.740Z,100924.84
2023-02-22T11:06:32.907Z,100927.56
2023-02-22T11:09:22.419Z,100908.63
2023-02-22T11:12:10.296Z,100883.81
2023-02-22T11:14:56.181Z,100849.25
2023-02-22T11:17:42.009Z,100839.13
2023-02-22T11:20:28.512Z,100809.38
2023-02-22T11:23:14.552Z,100796.88
2023-02-22T11:26:02.251Z,100757.00
2023-02-22T11:28:50.355Z,100718.13
2023-02-22T11:31:36.409Z,100678.63
2023-02-22T11:34:30.270Z,100634.63
2023-02-22T11:37:17.410Z,100614.22
2023-02-22T11:40:13.873Z,100586.94
2023-02-22T11:43:08.233Z,100571.00
2023-02-22T11:46:03.940Z,100543.78
2023-02-22T11:48:56.959Z,100531.66
2023-02-22T11:51:45.216Z,100535.78
2023-02-22T11:54:49.015Z,100531.19
2023-02-22T11:57:38.631Z,100515.44
2023-02-22T12:00:27.016Z,100509.00
2023-02-22T12:03:18.564Z,100513.97
2023-02-22T12:06:12.430Z,100494.78
2023-02-22T12:09:01.500Z,100494.31
2023-02-22T12:11:50.792Z,100485.09
2023-02-22T12:14:39.435Z,100480.03
2023-02-22T12:17:28.840Z,100481.56
2023-02-22T12:20:21.556Z,100479.81
2023-02-22T12:23:09.659Z,100466.28
2023-02-22T12:25:58.433Z,100471.25
2023-02-22T12:28:45.210Z,100464.97
2023-02-22T12:31:33.714Z,100460.09
2023-02-22T12:34:24.835Z,100464.22
2023-02-22T12:37:14.938Z,100455.50
2023-02-22T12:40:02.312Z,100449.94
2023-02-22T12:42:48.570Z,100448.09
2023-02-22T12:45:35.660Z,100444.09
2023-02-22T12:48:31.325Z,100435.75
2023-02-22T12:51:22.584Z,100428.06
2023-02-22T12:54:12.296Z,100429.63
2023-02-22T12:57:00.018Z,100428.88
2023-02-22T12:59:47.604Z,100419.41
2023-02-22T13:02:34.360Z,100421.81
2023-02-22T13:05:20.749Z,100414.72
2023-02-22T13:08:11.207Z,100401.00
2023-02-22T13:10:59.873Z,100394.38
2023-02-22T13:13:52.474Z,100387.44
2023-02-22T13:16:40.950Z,100385.97
2023-02-22T13:19:29.281Z,100375.00
2023-02-22T13:22:17.045Z,100371.94
2023-02-22T13:25:04.560Z,100370.84
2023-02-22T13:27:53.280Z,100360.97
2023-02-22T13:30:40.191Z,100362.00
2023-02-22T13:33:30.123Z,100363.13
2023-02-22T13:36:25.994Z,100361.81
2023-02-22T13:39:19.954Z,100365.69
2023-02-22T13:42:22.411Z,100349.38
2023-02-22T13:45:27.898Z,100357.28
2023-02-22T13:48:21.087Z,100344.28
2023-02-22T13:51:09.528Z,100342.91
2023-02-22T13:53:56.429Z,100344.94
2023-02-22T13:56:42.800Z,100342.56
2023-02-22T13:59:30.470Z,100337.66
2023-02-22T14:02:33.106Z,100336.72
2023-02-22T14:05:37.856Z,100333.56
2023-02-22T14:08:45.493Z,100333.94
2023-02-22T14:11:54.005Z,100335.59
2023-02-22T14:14:41.385Z,100328.53
2023-02-22T14:17:27.583Z,100324.84
2023-02-22T14:20:31.017Z,100325.13
2023-02-22T14:23:30.112Z,100326.56
2023-02-22T14:26:18.011Z,100333.41
2023-02-22T14:29:14.970Z,100328.72
2023-02-22T14:32:02.764Z,100327.97
2023-02-22T14:34:51.098Z,100316.72
2023-02-22T14:37:37.849Z,100317.38
2023-02-22T14:40:26.465Z,100326.31
2023-02-22T14:43:13.853Z,100320.50
2023-02-22T14:46:01.216Z,100321.78
2023-02-22T14:48:47.555Z,100320.22
2023-02-22T14:51:36.996Z,100327.41
2023-02-22T14:54:25.779Z,100322.44
2023-02-22T14:57:15.576Z,100312.75
2023-02-22T15:00:08.088Z,100319.44
2023-02-22T15:02:57.253Z,100323.44
2023-02-22T15:05:43.302Z,100323.63
2023-02-22T15:08:29.388Z,100317.34
2023-02-22T15:11:20.936Z,100319.63
2023-02-22T15:14:25.263Z,100322.84
2023-02-22T15:17:13.630Z,100319.63
2023-02-22T15:20:00.024Z,100314.44
2023-02-22T15:22:45.951Z,100317.28
2023-02-22T15:25:31.781Z,100315.63
2023-02-22T15:28:17.862Z,100294.19
2023-02-22T15:31:18.859Z,100308.78
2023-02-22T15:34:16.840Z,100300.94
2023-02-22T15:37:06.013Z,100300.84
2023-02-22T15:39:59.553Z,100309.41
2023-02-22T15:42:46.432Z,100352.44
2023-02-22T15:45:32.689Z,100355.81
2023-02-22T15:48:19.124Z,100403.34
2023-02-22T15:51:09.214Z,100412.06
2023-02-22T15:53:54.998Z,100417.28
2023-02-22T15:56:40.849Z,100413.44
2023-02-22T15:59:30.280Z,100423.16
2023-02-22T16:02:30.254Z,100439.38
2023-02-22T16:05:18.273Z,100456.06
2023-02-22T16:08:07.883Z,100472.41
2023-02-22T16:10:54.686Z,100500.09
2023-02-22T16:13:41.620Z,100516.41
2023-02-22T16:16:31.278Z,100537.72
2023-02-22T16:19:25.549Z,100555.69
2023-02-22T16:22:26.601Z,100571.31
2023-02-22T16:25:16.434Z,100587.88
2023-02-22T16:28:03.047Z,100609.59
2023-02-22T16:30:57.379Z,100630.38
2023-02-22T16:33:45.565Z,100646.59
2023-02-22T16:36:39.652Z,100663.59
2023-02-22T16:39:27.005Z,100690.13
2023-02-22T16:42:19.886Z,100710.00
2023-02-22T16:45:06.341Z,100727.16
2023-02-22T16:47:53.643Z,100750.47
2023-02-22T16:50:39.442Z,100766.66
2023-02-22T16:53:26.404Z,100780.81
2023-02-22T16:56:12.859Z,100809.44
2023-02-22T16:59:01.291Z,100825.25
2023-02-22T17:01:47.446Z,100842.41
2023-02-22T17:04:33.219Z,100854.66
2023-02-22T17:07:20.404Z,100869.94
2023-02-22T17:10:07.015Z,100895.53
2023-02-22T17:12:53.198Z,100908.81
2023-02-22T17:15:41.139Z,100927.25
2023-02-22T17:18:28.682Z,100950.16
2023-02-22T17:21:16.521Z,100966.78
2023-02-22T17:24:02.658Z,100985.22
2023-02-22T17:26:48.925Z,101003.47
2023-02-22T17:29:34.768Z,101023.56
2023-02-22T17:32:21.931Z,101034.16
2023-02-22T17:35:07.996Z,101050.59
2023-02-22T17:37:53.872Z,101062.72
2023-02-22T17:40:40.486Z,101078.19
2023-02-22T17:43:27.690Z,101089.31
2023-02-22T17:46:13.774Z,101106.72
2023-02-22T17:49:01.797Z,101111.84
2023-02-22T17:51:49.808Z,101133.56
2023-02-22T17:54:35.749Z,101142.97
2023-02-22T17:57:21.548Z,101157.59
2023-02-22T18:00:12.376Z,101161.59
2023-02-22T18:03:02.162Z,101177.16
2023-02-22T18:05:49.880Z,101195.25
2023-02-22T18:08:35.730Z,101206.47
2023-02-22T18:11:26.033Z,101216.56
2023-02-22T18:14:12.280Z,101230.91
2023-02-22T18:16:58.263Z,101237.66
2023-02-22T18:19:44.195Z,101254.13
2023-02-22T18:22:31.676Z,101265.34
2023-02-22T18:25:18.175Z,101272.69
2023-02-22T18:28:04.624Z,101292.44
2023-02-22T18:30:53.366Z,101298.06
2023-02-22T18:33:41.111Z,101312.63
2023-02-22T18:36:27.662Z,101324.44
2023-02-22T18:39:15.162Z,101327.44
2023-02-22T18:42:00.960Z,101336.44
2023-02-22T18:44:47.317Z,101335.00
2023-02-22T18:47:38.021Z,101338.00
2023-02-22T18:50:23.936Z,101348.94
2023-02-22T18:53:09.919Z,101345.78
2023-02-22T18:55:57.158Z,101358.53
2023-02-22T18:58:43.662Z,101363.56
2023-02-22T19:01:29.862Z,101369.06
2023-02-22T19:04:18.045Z,101376.38
2023-02-22T19:07:04.213Z,101379.38
2023-02-22T19:09:51.207Z,101385.97
2023-02-22T19:12:38.332Z,101394.22
2023-02-22T19:15:24.985Z,101398.91
2023-02-22T19:18:10.861Z,101405.28
2023-02-22T19:20:58.477Z,101416.91
2023-02-22T19:23:46.223Z,101416.53
2023-02-22T19:26:32.407Z,101418.66
2023-02-22T19:29:22.088Z,101429.78
2023-02-22T19:32:08.720Z,101438.91
2023-02-22T19:35:01.854Z,101445.03
2023-02-22T19:37:48.038Z,101456.75
2023-02-22T19:40:33.807Z,101460.44
2023-02-22T19:43:19.588Z,101462.13
2023-02-22T19:46:07.520Z,101467.75
2023-02-22T19:48:54.725Z,101474.72
2023-02-22T19:51:40.884Z,101480.97
2023-02-22T19:54:27.389Z,101495.25
2023-02-22T19:57:14.149Z,101497.78
2023-02-22T20:00:00.067Z,101499.81
2023-02-22T20:02:47.124Z,101503.50
2023-02-22T20:05:33.383Z,101508.78
2023-02-22T20:08:19.568Z,101511.66
2023-02-22T20:11:07.094Z,101520.50
2023-02-22T20:13:55.369Z,101532.00
2023-02-22T20:16:41.255Z,101527.78
2023-02-22T20:19:28.807Z,101535.84
2023-02-22T20:22:14.593Z,101541.44
2023-02-22T20:25:00.375Z,101539.13
2023-02-22T20:27:46.444Z,101543.56
2023-02-22T20:30:33.529Z,101543.66
2023-02-22T20:33:19.846Z,101546.50
2023-02-22T20:36:08.144Z,101548.63
2023-02-22T20:38:55.997Z,101546.09
2023-02-22T20:41:42.467Z,101554.31
2023-02-22T20:44:28.435Z,101545.56
2023-02-22T20:47:14.260Z,101549.16
2023-02-22T20:50:00.122Z,101555.50
2023-02-22T20:52:47.308Z,101556.63
2023-02-22T20:55:33.403Z,101555.88
2023-02-22T20:58:19.783Z,101566.44
2023-02-22T21:01:06.008Z,101565.81
2023-02-22T21:03:52.161Z,101573.84
2023-02-22T21:06:38.848Z,101576.59
2023-02-22T21:09:26.050Z,101583.03
2023-02-22T21:12:13.467Z,101581.63
2023-02-22T21:14:59.453Z,101581.72
2023-02-22T21:17:47.445Z,101583.72
2023-02-22T21:20:35.298Z,101583.94
2023-02-22T21:23:21.412Z,101579.81
2023-02-22T21:26:10.591Z,101584.41
2023-02-22T21:28:56.893Z,101582.19
2023-02-22T21:31:43.083Z,101581.56
2023-02-22T21:34:29.707Z,101580.06
2023-02-22T21:37:18.054Z,101579.50
2023-02-22T21:40:09.599Z,101573.47
2023-02-22T21:42:56.934Z,101575.34
2023-02-22T21:45:42.991Z,101580.84
2023-02-22T21:48:28.911Z,101582.72
2023-02-22T21:51:15.743Z,101588.19
2023-02-22T21:54:03.089Z,101588.56
2023-02-22T21:56:48.873Z,101592.38
2023-02-22T21:59:36.069Z,101587.28
2023-02-22T22:02:22.236Z,101587.03
2023-02-22T22:05:09.078Z,101584.47
2023-02-22T22:07:54.828Z,101594.19
2023-02-22T22:10:44.970Z,101599.66
2023-02-22T22:13:45.464Z,101602.38
2023-02-22T22:16:34.425Z,101593.00
2023-02-22T22:19:22.854Z,101595.94
2023-02-22T22:22:28.283Z,101595.06
2023-02-22T22:25:25.349Z,101605.03
2023-02-22T22:28:14.028Z,101605.22
2023-02-22T22:31:06.588Z,101610.69
2023-02-22T22:33:58.393Z,101601.41
2023-02-22T22:36:51.113Z,101604.19
2023-02-22T22:39:41.702Z,101609.56
2023-02-22T22:42:38.680Z,101616.81
2023-02-22T22:45:30.812Z,101615.22
2023-02-22T22:48:20.148Z,101616.56
2023-02-22T22:51:09.966Z,101622.75
2023-02-22T22:54:01.892Z,101621.22
2023-02-22T22:56:50.889Z,101614.47
2023-02-22T22:59:39.599Z,101617.28
2023-02-22T23:02:25.866Z,101617.56
2023-02-22T23:05:12.853Z,101618.66
2023-02-22T23:08:04.622Z,101612.94
2023-02-22T23:10:50.629Z,101614.81
2023-02-22T23:13:36.607Z,101613.22
2023-02-22T23:16:23.173Z,101610.69
2023-02-22T23:19:09.552Z,101623.25
2023-02-22T23:21:55.912Z,101619.88
2023-02-22T23:24:44.424Z,101615.91
2023-02-22T23:27:30.301Z,101625.69
2023-02-22T23:30:18.460Z,101618.91
2023-02-22T23:33:04.631Z,101618.16
2023-02-22T23:35:50.342Z,101624.34
2023-02-22T23:38:36.381Z,101617.47
2023-02-22T23:41:25.054Z,101626.41
2023-02-22T23:44:16.674Z,101631.56
2023-02-22T23:47:03.758Z,101624.69
2023-02-22T23:49:50.155Z,101634.47
2023-02-22T23:52:37.321Z,101634.66
2023-02-22T23:55:23.668Z,101637.09
2023-02-22T23:58:11.167Z,101645.94
